Time;durP1;ratioP1;P1;durP2;ratioP2;P2;SDS_P1;SDS_P2;PMS_P1;PMS_P2;Temp;Humidity;BMP_temperature;BMP_pressure;BME280_temperature;BME280_humidity;BME280_pressure;Samples;Min_cycle;Max_cycle;Signal;HPM_P1;HPM_P2
2021/01/12 00:02:21;;;;;;;3.17;2.60;;;3.60;96.20;;;;;;4968463;28;20182;-73
2021/01/12 00:04:48;;;;;;;2.57;2.37;;;3.60;96.00;;;;;;4968813;28;20675;-73
2021/01/12 00:07:18;;;;;;;3.80;2.83;;;3.60;95.90;;;;;;4969149;28;20665;-73
2021/01/12 00:09:43;;;;;;;3.67;2.33;;;3.50;95.90;;;;;;4969021;28;20269;-73
2021/01/12 00:12:09;;;;;;;2.63;2.30;;;3.50;95.70;;;;;;4957520;28;20277;-73
2021/01/12 00:14:35;;;;;;;2.37;2.27;;;3.50;95.50;;;;;;4965022;28;20555;-73
2021/01/12 00:17:10;;;;;;;3.90;2.47;;;3.50;95.60;;;;;;4959194;28;20209;-73
2021/01/12 00:19:36;;;;;;;3.00;2.13;;;3.40;95.60;;;;;;4965674;28;20249;-73
2021/01/12 00:22:06;;;;;;;3.40;2.23;;;3.40;95.60;;;;;;4968857;28;20250;-73
2021/01/12 00:24:32;;;;;;;3.57;2.17;;;3.30;95.50;;;;;;4968914;28;20241;-73
2021/01/12 00:26:58;;;;;;;2.20;2.10;;;3.30;95.40;;;;;;4969161;28;20183;-74
2021/01/12 00:29:24;;;;;;;1.73;1.63;;;3.30;95.70;;;;;;4968162;28;20204;-74
2021/01/12 00:31:49;;;;;;;1.60;1.60;;;3.30;95.80;;;;;;4967657;28;20265;-73
2021/01/12 00:34:15;;;;;;;2.43;2.27;;;3.30;95.90;;;;;;4968137;28;20187;-73
2021/01/12 00:36:42;;;;;;;3.23;2.23;;;3.40;96.10;;;;;;4967987;28;20210;-73
2021/01/12 00:39:08;;;;;;;2.30;2.10;;;3.40;96.20;;;;;;4965806;28;20183;-73
2021/01/12 00:41:35;;;;;;;2.03;1.90;;;3.40;96.20;;;;;;4968201;28;20186;-73
2021/01/12 00:44:01;;;;;;;2.23;2.13;;;3.40;96.10;;;;;;4968338;28;20182;-73
2021/01/12 00:46:27;;;;;;;2.93;2.27;;;3.30;96.00;;;;;;4967533;28;20202;-73
2021/01/12 00:48:52;;;;;;;4.23;2.17;;;3.30;96.00;;;;;;4965943;28;20296;-73
2021/01/12 00:51:18;;;;;;;1.97;1.87;;;3.30;96.10;;;;;;4967029;28;20182;-73
2021/01/12 00:53:44;;;;;;;2.73;2.53;;;3.30;96.20;;;;;;4939496;29;20575;-73
2021/01/12 00:56:12;;;;;;;2.57;2.37;;;3.30;96.40;;;;;;4960920;28;20179;-73
2021/01/12 00:58:37;;;;;;;2.70;2.50;;;3.30;96.50;;;;;;4967743;28;20185;-73
2021/01/12 01:01:03;;;;;;;3.23;2.60;;;3.30;96.40;;;;;;4967103;28;20175;-73
2021/01/12 01:03:29;;;;;;;2.23;2.13;;;3.30;96.40;;;;;;4967162;28;20185;-73
2021/01/12 01:05:54;;;;;;;2.10;2.00;;;3.30;96.40;;;;;;4967621;28;20956;-73
2021/01/12 01:08:20;;;;;;;2.93;2.77;;;3.30;96.40;;;;;;4965999;28;20193;-73
2021/01/12 01:10:46;;;;;;;2.80;2.20;;;3.30;96.50;;;;;;4967046;28;20186;-73
2021/01/12 01:13:11;;;;;;;2.03;1.90;;;3.30;96.60;;;;;;4963193;28;20194;-73
2021/01/12 01:15:37;;;;;;;4.73;3.23;;;3.30;96.80;;;;;;4965161;28;20289;-73
2021/01/12 01:18:03;;;;;;;4.53;2.90;;;3.30;96.90;;;;;;4965154;28;20202;-72
2021/01/12 01:20:28;;;;;;;2.10;1.93;;;3.30;96.90;;;;;;4966258;28;20182;-72
2021/01/12 01:22:54;;;;;;;2.77;2.60;;;3.30;96.90;;;;;;4966043;28;20767;-72
2021/01/12 01:25:20;;;;;;;3.83;2.90;;;3.30;97.10;;;;;;4966456;28;20221;-73
2021/01/12 01:27:45;;;;;;;2.90;2.70;;;3.30;97.10;;;;;;4963705;28;20201;-73
2021/01/12 01:30:12;;;;;;;2.57;2.37;;;3.30;97.10;;;;;;4965674;28;20273;-73
2021/01/12 01:32:38;;;;;;;2.80;2.60;;;3.30;97.00;;;;;;4966168;28;20986;-73
2021/01/12 01:35:04;;;;;;;3.30;2.43;;;3.30;97.00;;;;;;4965948;28;20183;-73
2021/01/12 01:37:30;;;;;;;2.90;2.77;;;3.40;97.00;;;;;;4965559;28;20210;-73
2021/01/12 01:39:55;;;;;;;3.20;3.00;;;3.40;97.10;;;;;;4967757;28;20240;-73
2021/01/12 01:42:22;;;;;;;4.53;3.90;;;3.40;97.10;;;;;;4959685;28;20203;-73
2021/01/12 01:44:47;;;;;;;3.77;2.97;;;3.30;97.00;;;;;;4947329;29;20183;-73
2021/01/12 01:47:13;;;;;;;3.17;2.97;;;3.30;96.80;;;;;;4961291;28;20580;-73
2021/01/12 01:49:39;;;;;;;4.53;3.40;;;3.30;96.80;;;;;;4965962;28;20210;-73
2021/01/12 01:52:05;;;;;;;5.63;3.43;;;3.10;97.00;;;;;;4965172;28;20178;-73
2021/01/12 01:54:30;;;;;;;5.83;3.33;;;3.10;97.30;;;;;;4966804;28;20210;-73
2021/01/12 01:56:58;;;;;;;5.27;4.23;;;3.10;97.60;;;;;;4967192;28;20296;-73
2021/01/12 01:59:24;;;;;;;6.77;4.00;;;3.10;97.60;;;;;;4967535;28;20174;-73
2021/01/12 02:01:50;;;;;;;6.83;4.80;;;3.00;97.80;;;;;;4966358;28;20189;-73
2021/01/12 02:04:29;;;;;;;3.60;3.30;;;3.00;98.00;;;;;;4966400;28;20209;-73
2021/01/12 02:06:59;;;;;;;5.33;4.20;;;3.00;97.90;;;;;;4966432;28;20198;-73
2021/01/12 02:09:24;;;;;;;5.73;3.63;;;3.00;97.90;;;;;;4957986;28;20580;-73
2021/01/12 02:11:56;;;;;;;3.97;3.23;;;3.00;97.90;;;;;;4946983;29;20183;-73
2021/01/12 02:14:25;;;;;;;3.67;3.37;;;3.00;97.90;;;;;;4929885;29;20309;-73
2021/01/12 02:16:54;;;;;;;5.63;3.40;;;3.00;98.00;;;;;;4959138;28;20683;-73
2021/01/12 02:19:22;;;;;;;3.27;3.07;;;3.10;97.90;;;;;;4963066;28;20265;-73
2021/01/12 02:21:55;;;;;;;6.60;2.87;;;3.10;98.00;;;;;;4949340;28;20193;-73
2021/01/12 02:24:21;;;;;;;3.33;3.07;;;3.10;97.80;;;;;;4966483;28;20734;-73
2021/01/12 02:26:47;;;;;;;6.67;4.03;;;3.10;97.90;;;;;;4965904;28;20201;-73
2021/01/12 02:29:13;;;;;;;3.17;2.93;;;3.10;97.90;;;;;;4950456;28;20203;-73
2021/01/12 02:31:40;;;;;;;5.40;3.60;;;3.20;97.80;;;;;;4959176;28;20194;-73
2021/01/12 02:34:13;;;;;;;5.63;4.00;;;3.20;97.80;;;;;;4965720;28;20194;-73
2021/01/12 02:36:40;;;;;;;5.57;3.47;;;3.20;97.80;;;;;;4950894;28;20210;-73
2021/01/12 02:39:05;;;;;;;4.07;3.50;;;3.20;97.90;;;;;;4963900;28;20226;-73
2021/01/12 02:41:32;;;;;;;6.83;3.90;;;3.30;97.90;;;;;;4964966;28;21070;-73
2021/01/12 02:43:59;;;;;;;3.43;3.13;;;3.30;97.70;;;;;;4964565;28;20272;-73
2021/01/12 02:46:25;;;;;;;4.00;3.60;;;3.30;97.80;;;;;;4964257;28;20652;-73
2021/01/12 02:48:52;;;;;;;5.50;3.50;;;3.30;97.80;;;;;;4943701;28;20269;-73
2021/01/12 02:51:17;;;;;;;6.07;3.60;;;3.30;97.70;;;;;;4948833;28;21066;-73
2021/01/12 02:53:43;;;;;;;9.50;4.57;;;3.30;97.70;;;;;;4965894;28;20182;-73
2021/01/12 02:56:09;;;;;;;3.40;3.20;;;3.30;97.70;;;;;;4969254;28;20651;-73
2021/01/12 02:58:35;;;;;;;5.93;3.60;;;3.30;97.70;;;;;;4969503;28;20206;-73
2021/01/12 03:01:01;;;;;;;3.17;2.97;;;3.30;97.70;;;;;;4970065;28;20178;-73
2021/01/12 03:03:26;;;;;;;5.17;3.80;;;3.40;97.70;;;;;;4968105;28;20186;-73
2021/01/12 03:05:53;;;;;;;8.97;4.03;;;3.40;97.80;;;;;;4968292;28;20194;-73
2021/01/12 03:08:20;;;;;;;5.60;3.20;;;3.40;97.80;;;;;;4952829;28;20196;-73
2021/01/12 03:10:46;;;;;;;6.87;4.20;;;3.40;97.90;;;;;;4969973;28;20186;-72
2021/01/12 03:13:11;;;;;;;4.90;3.47;;;3.40;97.90;;;;;;4969293;28;20182;-73
2021/01/12 03:15:39;;;;;;;5.63;4.07;;;3.40;97.90;;;;;;4969791;28;20200;-73
2021/01/12 03:18:05;;;;;;;4.57;3.57;;;3.40;97.90;;;;;;4969426;28;20213;-73
2021/01/12 03:20:31;;;;;;;3.50;3.20;;;3.40;97.90;;;;;;4969146;28;20699;-73
2021/01/12 03:22:57;;;;;;;7.30;3.80;;;3.40;97.90;;;;;;4967687;28;20190;-73
2021/01/12 03:25:24;;;;;;;4.87;3.33;;;3.40;97.80;;;;;;4967017;28;20197;-73
2021/01/12 03:27:50;;;;;;;6.87;2.90;;;3.40;97.80;;;;;;4966824;28;20216;-73
2021/01/12 03:30:17;;;;;;;3.43;3.10;;;3.40;97.70;;;;;;4965777;28;20186;-73
2021/01/12 03:32:43;;;;;;;5.27;2.80;;;3.40;97.60;;;;;;4967893;28;20616;-73
2021/01/12 03:35:10;;;;;;;3.57;3.13;;;3.40;97.50;;;;;;4967600;28;20193;-73
2021/01/12 03:37:36;;;;;;;2.47;2.33;;;3.30;97.50;;;;;;4968397;28;20276;-73
2021/01/12 03:40:03;;;;;;;6.13;2.23;;;3.30;97.50;;;;;;4969076;28;20217;-73
2021/01/12 03:42:29;;;;;;;2.00;1.90;;;3.20;97.40;;;;;;4967985;28;20174;-73
2021/01/12 03:44:55;;;;;;;5.33;3.10;;;3.20;97.50;;;;;;4951149;28;20190;-73
2021/01/12 03:47:20;;;;;;;3.13;2.53;;;3.20;97.60;;;;;;4969086;28;20564;-73
2021/01/12 03:49:46;;;;;;;2.77;2.57;;;3.10;97.60;;;;;;4969531;28;20190;-73
2021/01/12 03:52:12;;;;;;;7.40;2.23;;;3.10;97.60;;;;;;4968965;28;20187;-73
2021/01/12 03:54:38;;;;;;;5.53;2.23;;;3.10;97.60;;;;;;4967906;28;20187;-73
2021/01/12 03:57:03;;;;;;;2.03;1.90;;;3.10;97.60;;;;;;4969792;28;20690;-73
2021/01/12 03:59:29;;;;;;;2.10;1.70;;;3.10;97.70;;;;;;4957008;28;20179;-73
2021/01/12 04:01:55;;;;;;;2.17;1.93;;;3.10;97.70;;;;;;4950310;29;20190;-73
2021/01/12 04:04:20;;;;;;;1.73;1.63;;;3.00;97.60;;;;;;4952726;28;20187;-73
2021/01/12 04:06:46;;;;;;;1.77;1.77;;;3.00;97.60;;;;;;4966191;28;20289;-73
2021/01/12 04:09:12;;;;;;;1.73;1.57;;;3.10;97.60;;;;;;4968794;28;20714;-73
2021/01/12 04:11:38;;;;;;;1.60;1.50;;;3.10;97.70;;;;;;4969337;28;20191;-73
2021/01/12 04:14:06;;;;;;;2.60;1.80;;;3.10;97.60;;;;;;4969303;28;20209;-73
2021/01/12 04:16:32;;;;;;;1.80;1.70;;;3.10;97.60;;;;;;4967321;28;20182;-73
2021/01/12 04:18:58;;;;;;;1.40;1.40;;;3.10;97.40;;;;;;4950925;28;20186;-73
2021/01/12 04:21:24;;;;;;;2.23;1.43;;;3.00;97.40;;;;;;4968134;28;20174;-73
2021/01/12 04:23:50;;;;;;;1.67;1.57;;;3.10;97.50;;;;;;4966638;28;20567;-73
2021/01/12 04:26:15;;;;;;;1.63;1.30;;;3.10;97.50;;;;;;4966977;28;20257;-73
2021/01/12 04:28:41;;;;;;;1.70;1.60;;;3.10;97.50;;;;;;4968715;28;20579;-73
2021/01/12 04:31:07;;;;;;;2.47;2.27;;;3.10;97.40;;;;;;4969052;28;20190;-73
2021/01/12 04:33:33;;;;;;;1.77;1.67;;;3.10;97.20;;;;;;4968092;28;20236;-73
2021/01/12 04:35:58;;;;;;;1.60;1.50;;;3.10;97.20;;;;;;4967967;28;20553;-73
2021/01/12 04:38:24;;;;;;;1.60;1.60;;;3.10;97.20;;;;;;4968475;28;20300;-73
2021/01/12 04:40:51;;;;;;;2.40;1.57;;;3.10;97.30;;;;;;4967130;28;20186;-73
2021/01/12 04:43:17;;;;;;;2.00;1.90;;;3.10;97.30;;;;;;4967462;28;20210;-73
2021/01/12 04:45:43;;;;;;;1.83;1.57;;;3.10;97.30;;;;;;4949214;28;20209;-72
2021/01/12 04:48:09;;;;;;;1.77;1.67;;;3.10;97.20;;;;;;4968366;28;20186;-73
2021/01/12 04:50:34;;;;;;;1.07;1.00;;;3.10;97.00;;;;;;4968684;28;20277;-73
2021/01/12 04:53:00;;;;;;;1.77;1.67;;;3.10;97.20;;;;;;4968351;28;20711;-73
2021/01/12 04:55:26;;;;;;;1.27;1.17;;;3.10;97.30;;;;;;4968053;28;20186;-72
2021/01/12 04:57:53;;;;;;;1.77;1.60;;;3.00;97.40;;;;;;4966686;28;20663;-72
2021/01/12 05:00:28;;;;;;;1.50;1.40;;;3.10;97.40;;;;;;4961559;28;20552;-72
2021/01/12 05:03:01;;;;;;;1.80;1.67;;;3.00;97.30;;;;;;4961755;28;20628;-72
2021/01/12 05:05:31;;;;;;;2.60;1.47;;;3.00;97.30;;;;;;4967959;28;20198;-72
2021/01/12 05:08:13;;;;;;;2.00;1.73;;;3.00;97.40;;;;;;4967119;28;20277;-72
2021/01/12 05:10:43;;;;;;;1.60;1.50;;;3.00;97.20;;;;;;4962524;28;20217;-72
2021/01/12 05:13:13;;;;;;;3.27;1.50;;;2.90;97.30;;;;;;4967790;28;20213;-72
2021/01/12 05:15:40;;;;;;;1.33;1.27;;;2.90;97.40;;;;;;4968685;28;20262;-72
2021/01/12 05:18:10;;;;;;;1.60;1.50;;;2.90;97.40;;;;;;4968149;28;20667;-72
2021/01/12 05:20:44;;;;;;;1.37;1.20;;;2.90;97.40;;;;;;4966535;28;20285;-72
2021/01/12 05:23:12;;;;;;;1.30;1.30;;;2.90;97.50;;;;;;4967061;28;20182;-72
2021/01/12 05:25:40;;;;;;;1.47;1.47;;;2.90;97.60;;;;;;4968009;28;20178;-73
2021/01/12 05:28:11;;;;;;;1.07;1.00;;;2.90;97.60;;;;;;4949644;28;20761;-72
2021/01/12 05:30:37;;;;;;;1.23;1.13;;;3.00;97.50;;;;;;4964323;28;20210;-72
2021/01/12 05:33:04;;;;;;;1.70;1.60;;;3.00;97.50;;;;;;4950054;28;20179;-72
2021/01/12 05:35:38;;;;;;;1.10;1.03;;;3.00;97.50;;;;;;4966981;28;20281;-72
2021/01/12 05:38:09;;;;;;;1.57;1.37;;;3.00;97.40;;;;;;4966462;28;20269;-72
2021/01/12 05:40:40;;;;;;;1.73;1.63;;;3.00;97.30;;;;;;4965780;28;20182;-72
2021/01/12 05:43:12;;;;;;;1.20;1.20;;;3.00;97.20;;;;;;4961068;28;20202;-73
2021/01/12 05:45:42;;;;;;;1.57;1.47;;;3.10;97.30;;;;;;4966650;28;20279;-72
2021/01/12 05:48:11;;;;;;;1.87;1.77;;;3.10;97.00;;;;;;4962011;28;20183;-73
2021/01/12 05:50:38;;;;;;;2.10;2.00;;;3.00;97.00;;;;;;4964597;28;20252;-72
2021/01/12 05:53:06;;;;;;;2.17;1.60;;;3.10;97.00;;;;;;4942421;29;20187;-72
2021/01/12 05:55:38;;;;;;;1.43;1.43;;;3.10;97.00;;;;;;4950904;28;20214;-73
2021/01/12 05:58:34;;;;;;;1.73;1.63;;;3.10;97.20;;;;;;4963377;28;20207;-73
2021/01/12 06:01:03;;;;;;;2.93;2.27;;;3.10;97.20;;;;;;4960673;28;20218;-73
2021/01/12 06:03:33;;;;;;;1.93;1.87;;;3.10;97.20;;;;;;4964108;28;20182;-72
2021/01/12 06:05:59;;;;;;;2.83;2.07;;;3.10;97.20;;;;;;4966702;28;20969;-72
2021/01/12 06:08:27;;;;;;;3.67;1.83;;;3.10;97.20;;;;;;4958927;28;20218;-72
2021/01/12 06:10:53;;;;;;;2.27;2.17;;;3.10;96.90;;;;;;4960077;28;20187;-73
2021/01/12 06:13:19;;;;;;;3.03;2.30;;;3.10;96.80;;;;;;4948449;28;20194;-73
2021/01/12 06:15:47;;;;;;;2.30;2.20;;;3.00;96.80;;;;;;4963619;28;20229;-73
2021/01/12 06:18:17;;;;;;;2.57;2.37;;;3.00;96.80;;;;;;4965278;28;20209;-75
2021/01/12 06:20:44;;;;;;;2.80;2.07;;;2.90;96.90;;;;;;4957808;28;20194;-73
2021/01/12 06:23:17;;;;;;;2.93;2.03;;;2.90;97.00;;;;;;4956419;28;20184;-75
2021/01/12 06:25:45;;;;;;;2.13;2.00;;;2.90;97.00;;;;;;4946425;28;20189;-75
2021/01/12 06:28:11;;;;;;;3.17;2.30;;;2.90;97.20;;;;;;4950237;28;20229;-75
2021/01/12 06:30:37;;;;;;;2.40;2.30;;;2.90;97.50;;;;;;4965084;28;20281;-75
2021/01/12 06:33:03;;;;;;;2.33;2.03;;;3.00;97.40;;;;;;4966436;28;20197;-73
2021/01/12 06:35:29;;;;;;;2.97;2.67;;;3.00;97.30;;;;;;4960471;28;20274;-74
2021/01/12 06:37:59;;;;;;;1.90;1.80;;;3.00;97.40;;;;;;4951035;28;20288;-73
2021/01/12 06:40:25;;;;;;;3.07;2.70;;;3.00;97.30;;;;;;4948243;28;20194;-74
2021/01/12 06:42:56;;;;;;;2.77;2.43;;;3.00;97.30;;;;;;4952470;28;20706;-70
2021/01/12 06:45:23;;;;;;;1.90;1.90;;;3.10;97.30;;;;;;4963244;28;20213;-70
2021/01/12 06:47:49;;;;;;;2.40;2.27;;;3.10;97.30;;;;;;4953723;28;20675;-70
2021/01/12 06:50:18;;;;;;;3.50;3.20;;;3.10;97.40;;;;;;4965296;28;20175;-70
2021/01/12 06:52:45;;;;;;;3.73;3.43;;;3.10;97.20;;;;;;4966101;28;20660;-70
2021/01/12 06:55:13;;;;;;;3.13;2.37;;;3.10;97.20;;;;;;4965594;28;20182;-72
2021/01/12 06:57:42;;;;;;;2.47;2.37;;;3.10;97.30;;;;;;4947856;28;20209;-72
2021/01/12 07:00:09;;;;;;;4.63;3.40;;;3.10;97.40;;;;;;4964678;28;20186;-71
2021/01/12 07:02:35;;;;;;;3.33;3.13;;;3.10;97.60;;;;;;4965377;28;20174;-71
2021/01/12 07:05:13;;;;;;;3.10;2.80;;;3.10;97.70;;;;;;4951800;28;20187;-70
2021/01/12 07:07:43;;;;;;;2.83;2.63;;;3.20;97.60;;;;;;4931559;28;21029;-70
2021/01/12 07:10:12;;;;;;;2.50;2.30;;;3.20;97.40;;;;;;4940796;28;20256;-70
2021/01/12 07:12:39;;;;;;;2.33;2.23;;;3.20;97.10;;;;;;4933346;28;20191;-75
2021/01/12 07:15:20;;;;;;;2.00;1.90;;;3.20;97.00;;;;;;4930358;28;20191;-70
2021/01/12 07:17:54;;;;;;;2.60;2.40;;;3.20;97.00;;;;;;4920731;28;20217;-71
2021/01/12 07:20:26;;;;;;;3.13;1.93;;;3.20;97.00;;;;;;4945292;28;21633;-71
2021/01/12 07:22:54;;;;;;;2.07;1.97;;;3.20;97.00;;;;;;4944824;28;20698;-71
2021/01/12 07:25:28;;;;;;;3.20;3.00;;;3.20;96.80;;;;;;4962673;28;20182;-71
2021/01/12 07:28:04;;;;;;;4.73;2.67;;;3.20;96.90;;;;;;4953402;28;20197;-71
2021/01/12 07:30:31;;;;;;;1.90;1.80;;;3.20;97.00;;;;;;4950244;28;20177;-72
2021/01/12 07:33:02;;;;;;;3.43;2.57;;;3.20;97.00;;;;;;4952338;28;20661;-71
2021/01/12 07:35:29;;;;;;;2.83;2.67;;;3.10;96.90;;;;;;4964498;28;20166;-72
2021/01/12 07:37:55;;;;;;;3.20;2.97;;;3.10;96.60;;;;;;4956924;28;20241;-73
2021/01/12 07:40:21;;;;;;;3.00;2.80;;;3.00;96.70;;;;;;4942406;28;20297;-73
2021/01/12 07:42:54;;;;;;;3.17;2.80;;;3.00;96.60;;;;;;4961785;28;20823;-73
2021/01/12 07:45:32;;;;;;;2.43;2.20;;;3.00;96.50;;;;;;4930409;29;20258;-73
2021/01/12 07:47:59;;;;;;;2.67;2.50;;;3.00;96.80;;;;;;4962311;28;20194;-72
2021/01/12 07:50:26;;;;;;;3.53;2.43;;;3.00;96.90;;;;;;4967291;28;20186;-73
2021/01/12 07:52:52;;;;;;;3.10;2.87;;;3.00;96.80;;;;;;4956899;28;20221;-72
2021/01/12 07:55:18;;;;;;;2.47;2.37;;;3.10;97.00;;;;;;4944679;28;20213;-73
2021/01/12 07:57:47;;;;;;;3.40;3.00;;;3.10;97.00;;;;;;4947370;28;20239;-73
2021/01/12 08:00:14;;;;;;;4.20;2.63;;;3.10;97.00;;;;;;4958150;28;20269;-72
2021/01/12 08:02:54;;;;;;;2.50;2.40;;;3.20;97.20;;;;;;4961002;28;20181;-73
2021/01/12 08:05:23;;;;;;;2.80;2.50;;;3.20;97.00;;;;;;4945069;28;20182;-73
2021/01/12 08:07:50;;;;;;;3.33;3.13;;;3.20;97.00;;;;;;4949735;28;20190;-74
2021/01/12 08:10:16;;;;;;;2.60;2.40;;;3.30;96.80;;;;;;4963680;28;20276;-74
2021/01/12 08:12:42;;;;;;;3.80;2.13;;;3.30;96.80;;;;;;4967468;28;20843;-74
2021/01/12 08:15:17;;;;;;;3.03;2.50;;;3.30;96.90;;;;;;4967382;28;20277;-73
2021/01/12 08:17:47;;;;;;;2.53;2.43;;;3.30;96.80;;;;;;4947941;28;20198;-73
2021/01/12 08:20:15;;;;;;;3.00;2.77;;;3.30;96.80;;;;;;4966809;28;20311;-73
2021/01/12 08:22:47;;;;;;;3.03;2.40;;;3.30;96.60;;;;;;4942350;28;20210;-73
2021/01/12 08:25:13;;;;;;;2.43;2.23;;;3.40;96.50;;;;;;4963272;28;20916;-73
2021/01/12 08:27:45;;;;;;;2.60;2.50;;;3.40;96.50;;;;;;4964377;28;20341;-74
2021/01/12 08:30:11;;;;;;;4.00;2.40;;;3.40;96.60;;;;;;4961494;28;20190;-73
2021/01/12 08:32:43;;;;;;;2.77;2.57;;;3.40;96.70;;;;;;4948399;28;20198;-72
2021/01/12 08:35:11;;;;;;;3.13;2.93;;;3.40;96.60;;;;;;4954802;28;20297;-72
2021/01/12 08:37:39;;;;;;;3.07;2.87;;;3.50;96.50;;;;;;4965480;28;20298;-72
2021/01/12 08:42:53;;;;;;;5.13;3.23;;;3.40;96.20;;;;;;4959100;28;20227;-73
2021/01/12 08:45:19;;;;;;;2.83;2.63;;;3.40;96.10;;;;;;4966153;28;20174;-73
2021/01/12 08:47:45;;;;;;;3.27;3.07;;;3.40;96.20;;;;;;4964441;28;20190;-73
2021/01/12 08:50:12;;;;;;;3.07;2.77;;;3.30;96.20;;;;;;4954779;28;20193;-73
2021/01/12 08:52:40;;;;;;;3.10;2.90;;;3.30;96.20;;;;;;4965431;28;20218;-73
2021/01/12 08:55:22;;;;;;;3.53;3.23;;;3.30;96.30;;;;;;4949251;28;20217;-73
2021/01/12 08:58:02;;;;;;;2.67;2.47;;;3.20;96.30;;;;;;4949100;28;20626;-73
2021/01/12 09:00:34;;;;;;;3.13;2.33;;;3.20;96.50;;;;;;4965271;28;20516;-73
2021/01/12 09:03:00;;;;;;;2.63;2.50;;;3.20;96.50;;;;;;4960878;28;20183;-73
2021/01/12 09:05:27;;;;;;;2.77;2.57;;;3.20;96.50;;;;;;4961554;28;20183;-72
2021/01/12 09:08:11;;;;;;;4.43;3.53;;;3.20;96.50;;;;;;4947498;28;20606;-72
2021/01/12 09:10:39;;;;;;;3.97;2.90;;;3.20;96.40;;;;;;4956388;28;20209;-71
2021/01/12 09:13:06;;;;;;;3.47;3.17;;;3.20;96.50;;;;;;4967041;28;20225;-71
2021/01/12 09:15:37;;;;;;;3.80;3.47;;;3.20;96.50;;;;;;4966160;28;20205;-71
2021/01/12 09:18:24;;;;;;;3.40;3.10;;;3.20;96.20;;;;;;4966668;28;20195;-71
2021/01/12 09:21:01;;;;;;;3.27;2.87;;;3.10;96.00;;;;;;4965909;28;20182;-70
2021/01/12 09:23:28;;;;;;;2.60;2.40;;;3.10;96.30;;;;;;4948254;28;20222;-70
2021/01/12 09:26:01;;;;;;;2.53;2.33;;;3.10;96.30;;;;;;4966531;28;20644;-71
2021/01/12 09:28:37;;;;;;;4.07;2.43;;;3.10;96.40;;;;;;4966127;28;20189;-71
2021/01/12 09:31:13;;;;;;;2.57;2.37;;;3.10;96.40;;;;;;4938456;29;20200;-71
2021/01/12 09:33:44;;;;;;;2.13;1.97;;;3.10;96.60;;;;;;4961522;28;20580;-71
2021/01/12 09:36:13;;;;;;;1.80;1.70;;;3.10;96.70;;;;;;4948792;28;20562;-74
2021/01/12 09:38:52;;;;;;;2.47;2.27;;;3.10;96.70;;;;;;4961785;28;20221;-71
2021/01/12 09:41:26;;;;;;;3.47;2.00;;;3.20;96.70;;;;;;4959188;28;20198;-71
2021/01/12 09:43:52;;;;;;;2.27;1.97;;;3.30;96.90;;;;;;4952545;28;20187;-71
2021/01/12 09:46:18;;;;;;;2.73;2.33;;;3.30;96.90;;;;;;4954549;28;23230;-71
2021/01/12 09:48:45;;;;;;;3.10;2.80;;;3.40;96.60;;;;;;4952349;28;20194;-71
2021/01/12 09:51:11;;;;;;;3.27;2.90;;;3.40;96.40;;;;;;4961108;28;20197;-71
2021/01/12 09:53:47;;;;;;;3.47;2.73;;;3.50;96.40;;;;;;4960912;28;21038;-72
2021/01/12 09:56:17;;;;;;;3.37;3.10;;;3.50;95.40;;;;;;4953500;28;20257;-72
2021/01/12 09:58:50;;;;;;;3.77;3.47;;;3.50;95.30;;;;;;4946520;28;20230;-72
2021/01/12 10:01:18;;;;;;;4.20;3.23;;;3.50;95.20;;;;;;4938791;28;20265;-73
2021/01/12 10:03:44;;;;;;;4.23;3.13;;;3.40;95.40;;;;;;4957326;28;20198;-73
2021/01/12 10:06:23;;;;;;;4.47;2.80;;;3.40;95.50;;;;;;4962700;28;20892;-73
2021/01/12 10:08:49;;;;;;;2.83;2.20;;;3.50;95.70;;;;;;4955338;28;20217;-73
2021/01/12 10:11:16;;;;;;;2.87;2.33;;;3.50;95.90;;;;;;4949046;28;20182;-73
2021/01/12 10:13:45;;;;;;;2.63;2.43;;;3.50;95.60;;;;;;4940153;29;20668;-73
2021/01/12 10:16:18;;;;;;;3.40;3.10;;;3.60;95.50;;;;;;4956920;28;20186;-73
2021/01/12 10:18:44;;;;;;;3.07;2.47;;;3.60;95.60;;;;;;4953186;28;20206;-73
2021/01/12 10:21:10;;;;;;;4.20;3.33;;;3.70;95.50;;;;;;4940231;28;20183;-72
2021/01/12 10:23:35;;;;;;;2.70;2.50;;;3.70;95.30;;;;;;4952970;28;20210;-73
2021/01/12 10:26:01;;;;;;;2.50;2.30;;;3.70;95.20;;;;;;4951239;28;20241;-73
2021/01/12 10:28:27;;;;;;;2.73;2.47;;;3.70;94.80;;;;;;4958987;28;20772;-73
2021/01/12 10:30:56;;;;;;;2.03;1.93;;;3.70;94.80;;;;;;4953266;28;21077;-72
2021/01/12 10:33:22;;;;;;;3.10;2.40;;;3.70;94.50;;;;;;4965637;28;20190;-72
2021/01/12 10:35:47;;;;;;;1.93;1.83;;;3.70;94.50;;;;;;4963225;28;20268;-72
2021/01/12 10:38:13;;;;;;;2.53;2.33;;;3.70;94.60;;;;;;4964389;28;20209;-73
2021/01/12 10:40:39;;;;;;;2.87;2.50;;;3.60;94.80;;;;;;4957940;28;20191;-72
2021/01/12 10:43:04;;;;;;;2.47;2.20;;;3.60;95.00;;;;;;4964940;28;20182;-72
2021/01/12 10:45:30;;;;;;;2.50;2.40;;;3.50;94.80;;;;;;4959443;28;20219;-71
2021/01/12 10:47:56;;;;;;;2.83;1.73;;;3.50;94.80;;;;;;4940729;28;20201;-71
2021/01/12 10:50:22;;;;;;;1.83;1.50;;;3.40;94.90;;;;;;4941498;28;20245;-71
2021/01/12 10:52:48;;;;;;;2.30;2.13;;;3.40;94.80;;;;;;4946404;28;20182;-71
2021/01/12 10:55:14;;;;;;;2.20;2.10;;;3.30;94.80;;;;;;4964350;28;20651;-75
2021/01/12 10:57:44;;;;;;;1.67;1.67;;;3.30;95.00;;;;;;4963501;28;20202;-74
2021/01/12 11:00:11;;;;;;;2.70;2.13;;;3.40;95.20;;;;;;4952110;28;20181;-73
2021/01/12 11:02:37;;;;;;;2.53;2.33;;;3.40;95.30;;;;;;4959987;28;20302;-73
2021/01/12 11:05:05;;;;;;;3.43;2.90;;;3.30;95.10;;;;;;4965763;28;21073;-79
2021/01/12 11:07:31;;;;;;;4.13;2.97;;;3.30;95.10;;;;;;4961177;28;20198;-74
2021/01/12 11:10:00;;;;;;;3.60;3.23;;;3.20;95.30;;;;;;4964333;28;20186;-75
2021/01/12 11:12:29;;;;;;;2.83;2.60;;;3.30;95.80;;;;;;4961250;28;20194;-72
2021/01/12 11:14:56;;;;;;;2.00;1.90;;;3.30;95.50;;;;;;4962192;28;20186;-72
2021/01/12 11:17:22;;;;;;;1.77;1.67;;;3.20;95.40;;;;;;4965036;28;20687;-71
2021/01/12 11:19:48;;;;;;;1.57;1.57;;;3.00;95.10;;;;;;4968558;28;20184;-75
2021/01/12 11:22:14;;;;;;;2.27;1.60;;;3.00;95.50;;;;;;4950391;28;20277;-73
2021/01/12 11:24:40;;;;;;;2.13;2.03;;;3.10;95.80;;;;;;4967476;28;20266;-73
2021/01/12 11:27:07;;;;;;;2.77;2.60;;;3.00;95.70;;;;;;4965934;28;20201;-74
2021/01/12 11:29:33;;;;;;;4.93;3.10;;;3.10;95.90;;;;;;4955012;28;20583;-71
2021/01/12 11:31:59;;;;;;;3.33;3.03;;;3.10;95.60;;;;;;4968291;28;20922;-72
2021/01/12 11:34:26;;;;;;;3.00;2.80;;;3.10;95.80;;;;;;4955068;28;20200;-71
2021/01/12 11:36:52;;;;;;;3.40;3.17;;;3.10;96.00;;;;;;4964906;28;20191;-72
2021/01/12 11:39:18;;;;;;;3.30;3.10;;;3.10;95.90;;;;;;4960254;28;20684;-71
2021/01/12 11:41:49;;;;;;;4.23;2.27;;;3.10;95.80;;;;;;4967432;28;20850;-73
2021/01/12 11:44:17;;;;;;;3.97;2.53;;;3.00;95.10;;;;;;4964400;28;20171;-70
2021/01/12 11:46:43;;;;;;;1.83;1.73;;;2.90;95.20;;;;;;4949102;28;20613;-71
2021/01/12 11:49:09;;;;;;;2.57;2.30;;;2.80;95.40;;;;;;4950666;28;20614;-72
2021/01/12 11:51:38;;;;;;;3.90;3.37;;;2.80;95.40;;;;;;4958300;28;20197;-73
2021/01/12 11:54:06;;;;;;;4.00;3.70;;;2.80;95.70;;;;;;4956703;28;20214;-73
2021/01/12 11:56:32;;;;;;;3.67;3.37;;;2.80;95.80;;;;;;4933022;28;20179;-73
2021/01/12 11:58:58;;;;;;;3.70;3.37;;;2.70;95.90;;;;;;4968328;28;20929;-75
2021/01/12 12:01:24;;;;;;;3.70;3.13;;;2.70;96.10;;;;;;4941742;29;20179;-72
2021/01/12 12:03:50;;;;;;;2.47;2.33;;;2.60;96.10;;;;;;4936698;28;20189;-73
2021/01/12 12:06:15;;;;;;;4.03;3.27;;;2.50;96.40;;;;;;4961688;28;20183;-73
2021/01/12 12:08:41;;;;;;;3.67;3.37;;;2.40;96.60;;;;;;4935769;28;20209;-72
2021/01/12 12:11:07;;;;;;;3.30;3.07;;;2.20;96.90;;;;;;4965042;28;20186;-72
2021/01/12 12:13:39;;;;;;;2.87;2.67;;;2.20;97.20;;;;;;4967328;28;20189;-73
2021/01/12 12:16:13;;;;;;;3.83;3.40;;;2.20;97.40;;;;;;4964246;28;20191;-73
2021/01/12 12:18:43;;;;;;;2.40;2.30;;;2.20;97.90;;;;;;4947641;28;20205;-73
2021/01/12 12:21:16;;;;;;;3.67;3.10;;;2.30;98.10;;;;;;4947910;28;20179;-74
2021/01/12 12:23:43;;;;;;;3.97;3.47;;;2.30;98.10;;;;;;4949419;28;20674;-74
2021/01/12 12:26:11;;;;;;;7.33;3.67;;;2.20;97.60;;;;;;4939626;28;20615;-73
2021/01/12 12:28:37;;;;;;;3.83;3.53;;;2.20;97.80;;;;;;4964378;28;20193;-73
2021/01/12 12:31:04;;;;;;;4.93;4.10;;;2.20;97.80;;;;;;4965903;28;20209;-73
2021/01/12 12:33:30;;;;;;;4.10;3.80;;;2.10;97.90;;;;;;4948760;28;20183;-73
2021/01/12 12:35:56;;;;;;;7.53;4.77;;;2.10;98.00;;;;;;4966527;28;20233;-73
2021/01/12 12:38:22;;;;;;;4.23;3.43;;;2.20;98.10;;;;;;4964709;28;20214;-73
2021/01/12 12:40:47;;;;;;;4.33;3.63;;;2.20;98.20;;;;;;4954106;28;20175;-73
2021/01/12 12:43:13;;;;;;;3.83;3.27;;;2.20;98.20;;;;;;4929164;28;20186;-74
2021/01/12 12:45:39;;;;;;;4.03;3.53;;;2.10;98.00;;;;;;4962908;28;20183;-75
2021/01/12 12:48:06;;;;;;;4.57;3.30;;;2.10;98.00;;;;;;4948380;28;20182;-73
2021/01/12 12:50:33;;;;;;;3.17;2.97;;;2.10;98.00;;;;;;4963176;28;20362;-73
2021/01/12 12:52:59;;;;;;;5.27;4.27;;;2.00;98.00;;;;;;4941018;28;20178;-73
2021/01/12 12:55:24;;;;;;;4.90;3.63;;;1.90;97.80;;;;;;4947336;28;20206;-73
2021/01/12 12:57:50;;;;;;;7.10;2.73;;;1.90;97.80;;;;;;4947318;28;20364;-73
2021/01/12 13:00:17;;;;;;;6.07;4.07;;;1.80;97.80;;;;;;4947907;28;20182;-73
2021/01/12 13:02:44;;;;;;;4.13;3.60;;;1.70;97.90;;;;;;4965416;28;20560;-73
2021/01/12 13:05:10;;;;;;;7.57;3.87;;;1.70;98.40;;;;;;4947816;28;20182;-73